createdAt,value
2018-11-05T00:00:37.265Z,90.00
2018-11-05T00:03:06.368Z,85.50
2018-11-05T00:05:34.925Z,85.63
2018-11-05T00:08:03.370Z,87.70
2018-11-05T00:10:31.833Z,95.13
2018-11-05T00:13:00.447Z,104.97
2018-11-05T00:15:28.862Z,96.20
2018-11-05T00:17:57.271Z,101.10
2018-11-05T00:20:25.708Z,98.70
2018-11-05T00:22:54.081Z,125.27
2018-11-05T00:25:22.485Z,119.97
2018-11-05T00:27:50.899Z,109.43
2018-11-05T00:30:19.331Z,119.13
2018-11-05T00:32:47.703Z,114.57
2018-11-05T00:35:16.128Z,124.27
2018-11-05T00:37:44.779Z,128.30
2018-11-05T00:40:15.398Z,129.40
2018-11-05T00:42:44.883Z,128.80
2018-11-05T00:45:13.984Z,142.03
2018-11-05T00:47:42.944Z,139.90
2018-11-05T00:50:12.960Z,135.63
2018-11-05T00:52:41.378Z,130.70
2018-11-05T00:55:10.916Z,137.83
2018-11-05T00:57:39.313Z,136.13
2018-11-05T01:00:11.613Z,152.07
2018-11-05T01:02:40.411Z,147.67
2018-11-05T01:05:10.164Z,136.90
2018-11-05T01:07:38.748Z,143.77
2018-11-05T01:10:07.945Z,139.90
2018-11-05T01:12:36.763Z,136.70
2018-11-05T01:15:06.948Z,126.60
2018-11-05T01:17:35.402Z,142.87
2018-11-05T01:20:04.093Z,152.77
2018-11-05T01:22:32.558Z,154.07
2018-11-05T01:25:00.970Z,140.23
2018-11-05T01:27:29.364Z,146.63
2018-11-05T01:29:57.768Z,151.70
2018-11-05T01:32:26.125Z,156.63
2018-11-05T01:34:54.536Z,147.10
2018-11-05T01:37:22.987Z,159.83
2018-11-05T01:39:51.322Z,155.13
2018-11-05T01:42:19.727Z,158.97
2018-11-05T01:44:48.179Z,174.33
2018-11-05T01:47:16.637Z,153.20
2018-11-05T01:49:45.045Z,146.37
2018-11-05T01:52:14.141Z,143.10
2018-11-05T01:54:42.487Z,153.83
2018-11-05T01:57:10.899Z,150.70
2018-11-05T01:59:39.297Z,151.57
2018-11-05T02:02:07.733Z,151.80
2018-11-05T02:04:36.154Z,158.40
2018-11-05T02:07:04.623Z,145.80
2018-11-05T02:09:33.025Z,162.40
2018-11-05T02:12:01.399Z,152.80
2018-11-05T02:14:29.795Z,154.13
2018-11-05T02:16:58.444Z,169.60
2018-11-05T02:19:26.900Z,157.03
2018-11-05T02:21:55.271Z,181.20
2018-11-05T02:24:23.675Z,162.73
2018-11-05T02:26:54.244Z,166.07
2018-11-05T02:29:22.646Z,158.23
2018-11-05T02:31:51.045Z,160.43
2018-11-05T02:34:19.428Z,143.63
2018-11-05T02:36:49.095Z,150.73
2018-11-05T02:39:17.480Z,147.20
2018-11-05T02:41:45.841Z,163.63
2018-11-05T02:44:14.272Z,166.20
2018-11-05T02:46:42.647Z,152.97
2018-11-05T02:49:11.049Z,163.70
2018-11-05T02:51:39.499Z,164.90
2018-11-05T02:54:07.902Z,163.50
2018-11-05T02:56:36.304Z,169.53
2018-11-05T02:59:04.688Z,161.57
2018-11-05T03:01:33.131Z,166.27
2018-11-05T03:04:01.640Z,169.47
2018-11-05T03:06:30.272Z,176.53
2018-11-05T03:08:58.677Z,166.97
2018-11-05T03:11:27.144Z,155.90
2018-11-05T03:13:55.516Z,164.40
2018-11-05T03:16:23.972Z,146.83
2018-11-05T03:18:52.384Z,144.77
2018-11-05T03:21:20.804Z,139.50
2018-11-05T03:23:49.552Z,129.73
2018-11-05T03:26:17.998Z,140.10
2018-11-05T03:28:46.363Z,122.57
2018-11-05T03:31:14.781Z,138.57
2018-11-05T03:33:43.367Z,128.87
2018-11-05T03:36:12.006Z,132.23
2018-11-05T03:38:40.393Z,132.87
2018-11-05T03:41:09.165Z,140.90
2018-11-05T03:43:37.547Z,127.47
2018-11-05T03:46:06.291Z,133.37
2018-11-05T03:48:34.687Z,140.93
2018-11-05T03:51:03.161Z,147.10
2018-11-05T03:53:31.491Z,154.20
2018-11-05T03:55:59.891Z,137.77
2018-11-05T03:58:28.283Z,146.97
2018-11-05T04:00:56.643Z,133.97
2018-11-05T04:03:25.137Z,136.43
2018-11-05T04:05:53.728Z,163.90
2018-11-05T04:08:22.149Z,141.00
2018-11-05T04:10:50.521Z,156.67
2018-11-05T04:13:18.915Z,147.90
2018-11-05T04:15:47.410Z,146.63
2018-11-05T04:18:15.711Z,158.77
2018-11-05T04:20:44.308Z,145.97
2018-11-05T04:23:12.707Z,159.70
2018-11-05T04:25:41.033Z,143.47
2018-11-05T04:28:09.751Z,149.30
2018-11-05T04:30:38.155Z,145.30
2018-11-05T04:33:06.584Z,140.93
2018-11-05T04:35:35.007Z,134.13
2018-11-05T04:38:03.420Z,109.87
2018-11-05T04:40:31.796Z,123.13
2018-11-05T04:43:00.225Z,115.60
2018-11-05T04:45:28.616Z,117.90
2018-11-05T04:47:57.218Z,121.30
2018-11-05T04:50:25.580Z,112.00
2018-11-05T04:52:53.938Z,108.30
2018-11-05T04:55:22.352Z,119.37
2018-11-05T04:57:50.704Z,120.00
2018-11-05T05:00:19.227Z,128.10
2018-11-05T05:02:47.604Z,141.00
2018-11-05T05:05:17.206Z,127.30
2018-11-05T05:07:45.680Z,121.97
2018-11-05T05:10:14.046Z,121.83
2018-11-05T05:12:43.406Z,131.07
2018-11-05T05:15:12.112Z,125.53
2018-11-05T05:17:41.017Z,126.30
2018-11-05T05:20:12.007Z,136.67
2018-11-05T05:22:40.497Z,142.83
2018-11-05T05:25:08.848Z,139.10
2018-11-05T05:27:37.413Z,138.47
2018-11-05T05:30:09.953Z,135.97
2018-11-05T05:32:38.374Z,132.37
2018-11-05T05:35:06.780Z,132.47
2018-11-05T05:37:35.207Z,126.60
2018-11-05T05:40:03.618Z,141.17
2018-11-05T05:42:31.980Z,144.20
2018-11-05T05:45:00.434Z,128.17
2018-11-05T05:47:28.987Z,137.17
2018-11-05T05:49:57.361Z,144.47
2018-11-05T05:52:25.744Z,122.43
2018-11-05T05:54:54.082Z,126.87
2018-11-05T05:57:22.411Z,120.23
2018-11-05T05:59:50.866Z,119.07
2018-11-05T06:02:19.244Z,121.13
2018-11-05T06:04:47.757Z,125.20
2018-11-05T06:07:16.202Z,135.83
2018-11-05T06:09:44.641Z,140.00
2018-11-05T06:12:13.013Z,128.47
2018-11-05T06:14:41.423Z,119.07
2018-11-05T06:17:10.045Z,123.57
2018-11-05T06:19:38.677Z,123.60
2018-11-05T06:22:07.700Z,119.27
2018-11-05T06:24:36.049Z,109.57
2018-11-05T06:27:04.498Z,115.30
2018-11-05T06:29:32.850Z,111.47
2018-11-05T06:32:01.276Z,125.17
2018-11-05T06:34:29.720Z,118.80
2018-11-05T06:36:58.200Z,109.60
2018-11-05T06:39:26.584Z,109.63
2018-11-05T06:41:55.048Z,131.83
2018-11-05T06:44:23.416Z,117.53
2018-11-05T06:46:51.964Z,117.20
2018-11-05T06:49:20.362Z,110.13
2018-11-05T06:51:48.812Z,103.17
2018-11-05T06:54:17.260Z,102.27
2018-11-05T06:56:45.647Z,105.50
2018-11-05T06:59:14.052Z,101.30
2018-11-05T07:01:42.704Z,102.13
2018-11-05T07:04:11.118Z,108.87
2018-11-05T07:06:39.596Z,99.50
2018-11-05T07:09:09.631Z,111.70
2018-11-05T07:11:38.445Z,99.47
2018-11-05T07:14:07.124Z,112.23
2018-11-05T07:16:35.624Z,105.13
2018-11-05T07:19:04.573Z,97.97
2018-11-05T07:21:32.684Z,102.70
2018-11-05T07:24:01.070Z,115.23
2018-11-05T07:26:29.721Z,113.77
2018-11-05T07:28:58.073Z,109.70
2018-11-05T07:31:26.455Z,114.70
2018-11-05T07:33:55.028Z,97.67
2018-11-05T07:36:23.587Z,93.93
2018-11-05T07:38:51.923Z,90.67
2018-11-05T07:41:20.329Z,93.60
2018-11-05T07:43:48.743Z,82.90
2018-11-05T07:46:17.123Z,81.03
2018-11-05T07:48:45.491Z,84.47
2018-11-05T07:51:13.843Z,86.77
2018-11-05T07:53:42.243Z,87.00
2018-11-05T07:56:10.669Z,78.73
2018-11-05T07:58:39.073Z,79.80
2018-11-05T08:01:07.481Z,82.13
2018-11-05T08:03:35.875Z,79.77
2018-11-05T08:06:04.315Z,85.93
2018-11-05T08:08:32.824Z,81.93
2018-11-05T08:11:01.143Z,79.03
2018-11-05T08:13:29.549Z,81.73
2018-11-05T08:15:58.252Z,82.87
2018-11-05T08:18:26.693Z,88.10
2018-11-05T08:20:55.083Z,84.43
2018-11-05T08:23:23.466Z,83.37
2018-11-05T08:25:51.967Z,95.33
2018-11-05T08:28:20.383Z,77.63
2018-11-05T08:30:48.835Z,74.17
2018-11-05T08:33:17.227Z,78.03
2018-11-05T08:35:45.631Z,75.00
2018-11-05T08:38:14.098Z,72.80
2018-11-05T08:40:42.552Z,78.90
2018-11-05T08:43:10.940Z,75.17
2018-11-05T08:45:39.305Z,76.70
2018-11-05T08:48:07.703Z,79.57
2018-11-05T08:50:36.103Z,76.37
2018-11-05T08:53:04.495Z,73.33
2018-11-05T08:55:33.455Z,78.53
2018-11-05T08:58:01.873Z,79.87
2018-11-05T09:00:35.587Z,72.50
2018-11-05T09:03:04.172Z,78.30
2018-11-05T09:05:32.716Z,76.27
2018-11-05T09:08:01.169Z,84.20
2018-11-05T09:10:29.667Z,79.57
2018-11-05T09:12:58.007Z,72.77
2018-11-05T09:15:26.755Z,74.27
2018-11-05T09:17:55.137Z,68.57
2018-11-05T09:20:23.619Z,73.40
2018-11-05T09:22:52.590Z,69.37
2018-11-05T09:25:21.141Z,71.10
2018-11-05T09:27:49.646Z,73.37
2018-11-05T09:30:19.510Z,81.33
2018-11-05T09:32:48.040Z,74.30
2018-11-05T09:35:16.423Z,73.63
2018-11-05T09:37:44.884Z,71.50
2018-11-05T09:40:16.408Z,78.50
2018-11-05T09:42:45.409Z,73.53
2018-11-05T09:45:16.013Z,72.23
2018-11-05T09:47:45.241Z,66.53
2018-11-05T09:50:14.023Z,71.27
2018-11-05T09:52:42.495Z,73.33
2018-11-05T09:55:11.821Z,73.23
2018-11-05T09:57:40.743Z,72.33
2018-11-05T10:00:10.781Z,66.13
2018-11-05T10:02:44.543Z,60.93
2018-11-05T10:05:13.914Z,61.57
2018-11-05T10:07:42.339Z,54.80
2018-11-05T10:10:11.944Z,54.37
2018-11-05T10:12:40.523Z,54.17
2018-11-05T10:15:09.917Z,54.37
2018-11-05T10:17:38.831Z,55.57
2018-11-05T10:20:10.907Z,57.63
2018-11-05T10:22:39.290Z,55.00
2018-11-05T10:25:09.240Z,51.97
2018-11-05T10:27:37.585Z,51.93
2018-11-05T10:30:08.515Z,61.30
2018-11-05T10:32:36.951Z,51.40
2018-11-05T10:35:05.455Z,53.10
2018-11-05T10:37:33.894Z,52.40
2018-11-05T10:40:02.345Z,51.57
2018-11-05T10:42:30.661Z,47.00
2018-11-05T10:44:59.109Z,46.67
2018-11-05T10:47:27.511Z,45.40
2018-11-05T10:49:55.899Z,45.77
2018-11-05T10:52:24.362Z,45.27
2018-11-05T10:54:52.689Z,45.80
2018-11-05T10:57:21.091Z,50.17
2018-11-05T10:59:49.526Z,44.93
2018-11-05T11:02:23.164Z,50.03
2018-11-05T11:04:51.539Z,45.07
2018-11-05T11:07:19.950Z,42.87
2018-11-05T11:09:48.344Z,42.70
2018-11-05T11:12:16.705Z,46.87
2018-11-05T11:14:45.096Z,43.87
2018-11-05T11:17:13.592Z,40.63
2018-11-05T11:19:42.315Z,40.93
2018-11-05T11:22:10.761Z,39.37
2018-11-05T11:24:39.162Z,40.67
2018-11-05T11:27:07.580Z,48.77
2018-11-05T11:29:35.960Z,40.50
2018-11-05T11:32:04.420Z,38.90
2018-11-05T11:34:32.854Z,38.00
2018-11-05T11:37:01.344Z,43.73
2018-11-05T11:39:29.765Z,38.50
2018-11-05T11:41:58.116Z,33.97
2018-11-05T11:44:26.497Z,40.73
2018-11-05T11:46:54.897Z,38.80
2018-11-05T11:49:23.339Z,38.57
2018-11-05T11:51:51.789Z,38.90
2018-11-05T11:54:20.428Z,37.60
2018-11-05T11:56:49.239Z,36.33
2018-11-05T11:59:17.605Z,37.70
2018-11-05T12:01:51.425Z,40.77
2018-11-05T12:04:19.870Z,36.00
2018-11-05T12:06:48.382Z,35.57
2018-11-05T12:09:16.842Z,36.97
2018-11-05T12:11:45.270Z,37.17
2018-11-05T12:14:13.675Z,32.43
2018-11-05T12:16:42.057Z,36.17
2018-11-05T12:19:10.464Z,34.80
2018-11-05T12:21:38.831Z,36.60
2018-11-05T12:24:07.225Z,34.93
2018-11-05T12:26:35.633Z,35.00
2018-11-05T12:29:04.057Z,34.10
2018-11-05T12:31:32.530Z,33.30
2018-11-05T12:34:00.955Z,33.00
2018-11-05T12:36:31.431Z,30.53
2018-11-05T12:38:59.940Z,32.40
2018-11-05T12:41:28.348Z,35.17
2018-11-05T12:43:56.795Z,30.57
2018-11-05T12:46:25.157Z,27.07
2018-11-05T12:48:53.875Z,37.43
2018-11-05T12:51:22.261Z,34.40
2018-11-05T12:53:50.654Z,37.27
2018-11-05T12:56:19.091Z,35.63
2018-11-05T12:58:47.484Z,32.30
2018-11-05T13:01:15.852Z,32.67
2018-11-05T13:03:44.264Z,33.13
2018-11-05T13:06:12.892Z,34.53
2018-11-05T13:08:41.305Z,28.17
2018-11-05T13:11:09.820Z,30.17
2018-11-05T13:13:38.207Z,27.80
2018-11-05T13:16:06.619Z,33.83
2018-11-05T13:18:35.080Z,33.83
2018-11-05T13:21:03.500Z,34.67
2018-11-05T13:23:38.274Z,30.80
2018-11-05T13:26:06.772Z,33.00
2018-11-05T13:28:35.227Z,29.83
2018-11-05T13:31:03.569Z,28.27
2018-11-05T13:33:31.952Z,33.47
2018-11-05T13:36:00.320Z,31.97
2018-11-05T13:38:28.722Z,29.97
2018-11-05T13:40:57.132Z,28.03
2018-11-05T13:43:25.510Z,27.03
2018-11-05T13:45:54.312Z,32.63
2018-11-05T13:48:24.333Z,29.50
2018-11-05T13:50:52.458Z,33.53
2018-11-05T13:53:20.857Z,28.90
2018-11-05T13:55:49.330Z,30.03
2018-11-05T13:58:17.967Z,29.93
2018-11-05T14:00:46.404Z,29.37
2018-11-05T14:03:14.811Z,30.37
2018-11-05T14:05:43.294Z,28.67
2018-11-05T14:08:11.731Z,27.53
2018-11-05T14:10:40.202Z,28.93
2018-11-05T14:13:08.613Z,31.00
2018-11-05T14:15:36.999Z,32.23
2018-11-05T14:18:07.576Z,27.47
2018-11-05T14:20:36.003Z,28.40
2018-11-05T14:23:04.403Z,28.20
2018-11-05T14:25:32.934Z,31.53
2018-11-05T14:28:01.548Z,31.30
2018-11-05T14:30:29.747Z,31.30
2018-11-05T14:32:58.113Z,27.03
2018-11-05T14:35:26.500Z,33.80
2018-11-05T14:37:54.853Z,27.57
2018-11-05T14:40:23.295Z,23.77
2018-11-05T14:42:51.813Z,30.80
2018-11-05T14:45:20.987Z,29.87
2018-11-05T14:47:50.924Z,29.73
2018-11-05T14:50:20.870Z,26.37
2018-11-05T14:52:49.305Z,24.10
2018-11-05T14:55:18.898Z,23.93
2018-11-05T14:57:48.500Z,24.83
2018-11-05T15:00:19.633Z,27.37
2018-11-05T15:02:48.895Z,30.33
2018-11-05T15:05:17.639Z,28.70
2018-11-05T15:07:46.902Z,30.00
2018-11-05T15:10:16.635Z,26.17
2018-11-05T15:12:45.166Z,25.70
2018-11-05T15:15:14.353Z,31.20
2018-11-05T15:17:43.330Z,32.90
2018-11-05T15:20:13.600Z,25.20
2018-11-05T15:22:41.927Z,28.90
2018-11-05T15:25:11.036Z,26.23
2018-11-05T15:27:39.714Z,29.10
2018-11-05T15:30:12.831Z,30.33
2018-11-05T15:32:41.746Z,30.83
2018-11-05T15:35:10.332Z,30.43
2018-11-05T15:37:39.809Z,31.13
2018-11-05T15:40:09.404Z,27.60
2018-11-05T15:42:37.823Z,26.80
2018-11-05T15:45:07.670Z,28.67
2018-11-05T15:47:36.083Z,33.90
2018-11-05T15:50:06.487Z,33.63
2018-11-05T15:52:35.079Z,32.07
2018-11-05T15:55:03.369Z,32.83
2018-11-05T15:57:31.863Z,30.80
2018-11-05T16:00:00.734Z,33.33
2018-11-05T16:02:29.187Z,30.10
2018-11-05T16:04:57.607Z,35.23
2018-11-05T16:07:26.017Z,34.97
2018-11-05T16:09:54.426Z,34.70
2018-11-05T16:12:22.818Z,32.30
2018-11-05T16:14:51.202Z,37.07
2018-11-05T16:17:19.863Z,37.30
2018-11-05T16:19:48.242Z,34.87
2018-11-05T16:22:16.713Z,33.27
2018-11-05T16:24:45.202Z,37.40
2018-11-05T16:27:13.556Z,35.30
2018-11-05T16:29:42.355Z,37.13
2018-11-05T16:32:10.853Z,35.67
2018-11-05T16:34:39.262Z,34.23
2018-11-05T16:37:07.633Z,32.30
2018-11-05T16:39:36.147Z,41.13
2018-11-05T16:42:04.714Z,38.60
2018-11-05T16:44:33.137Z,43.47
2018-11-05T16:47:01.645Z,38.37
2018-11-05T16:49:30.034Z,39.70
2018-11-05T16:51:58.427Z,40.00
2018-11-05T16:54:27.270Z,36.90
2018-11-05T16:56:55.668Z,36.13
2018-11-05T16:59:24.140Z,37.77
2018-11-05T17:01:53.002Z,41.67
2018-11-05T17:04:20.997Z,40.30
2018-11-05T17:06:49.414Z,37.80
2018-11-05T17:09:17.819Z,44.13
2018-11-05T17:11:46.316Z,40.73
2018-11-05T17:14:14.701Z,42.80
2018-11-05T17:16:43.436Z,39.60
2018-11-05T17:19:11.905Z,43.20
2018-11-05T17:21:40.296Z,40.00
2018-11-05T17:24:08.776Z,46.07
2018-11-05T17:26:37.117Z,43.37
2018-11-05T17:29:05.736Z,41.23
2018-11-05T17:31:34.130Z,46.67
2018-11-05T17:34:02.558Z,41.90
2018-11-05T17:36:31.040Z,42.97
2018-11-05T17:38:59.624Z,38.47
2018-11-05T17:41:28.062Z,45.33
2018-11-05T17:43:56.508Z,42.57
2018-11-05T17:46:25.266Z,41.07
2018-11-05T17:48:53.686Z,43.17
2018-11-05T17:51:22.170Z,49.63
2018-11-05T17:53:50.588Z,43.03
2018-11-05T17:56:19.018Z,43.13
2018-11-05T17:58:47.445Z,37.97
2018-11-05T18:01:16.210Z,36.73
2018-11-05T18:03:44.700Z,41.67
2018-11-05T18:06:13.136Z,43.60
2018-11-05T18:08:41.661Z,34.57
2018-11-05T18:11:10.012Z,39.73
2018-11-05T18:13:38.424Z,42.20
2018-11-05T18:16:06.857Z,33.90
2018-11-05T18:18:35.226Z,36.07
2018-11-05T18:21:03.675Z,38.67
2018-11-05T18:23:32.087Z,45.43
2018-11-05T18:26:00.532Z,42.47
2018-11-05T18:28:29.091Z,37.83
2018-11-05T18:30:57.547Z,39.87
2018-11-05T18:33:25.953Z,39.33
2018-11-05T18:35:54.443Z,38.40
2018-11-05T18:38:22.929Z,39.13
2018-11-05T18:40:51.936Z,41.77
2018-11-05T18:43:20.384Z,44.87
2018-11-05T18:45:48.819Z,43.30
2018-11-05T18:48:17.197Z,40.80
2018-11-05T18:50:45.703Z,42.93
2018-11-05T18:53:14.168Z,42.03
2018-11-05T18:55:42.657Z,41.43
2018-11-05T18:58:11.305Z,43.37
2018-11-05T19:00:44.236Z,38.37
2018-11-05T19:03:12.752Z,41.43
2018-11-05T19:05:41.215Z,40.27
2018-11-05T19:08:09.781Z,45.93
2018-11-05T19:10:38.272Z,39.97
2018-11-05T19:13:06.769Z,45.53
2018-11-05T19:15:35.273Z,46.27
2018-11-05T19:18:03.806Z,42.17
2018-11-05T19:20:32.233Z,44.73
2018-11-05T19:23:00.887Z,43.80
2018-11-05T19:25:29.440Z,48.17
2018-11-05T19:27:57.901Z,45.93
2018-11-05T19:30:27.411Z,43.27
2018-11-05T19:32:55.704Z,41.87
2018-11-05T19:35:24.254Z,41.63
2018-11-05T19:37:52.676Z,41.07
2018-11-05T19:40:21.367Z,46.73
2018-11-05T19:42:50.270Z,46.47
2018-11-05T19:45:19.866Z,46.73
2018-11-05T19:47:48.345Z,44.43
2018-11-05T19:50:18.185Z,46.10
2018-11-05T19:52:47.864Z,45.77
2018-11-05T19:55:16.832Z,41.67
2018-11-05T19:57:46.193Z,47.77
2018-11-05T20:00:15.689Z,44.50
2018-11-05T20:02:44.557Z,42.77
2018-11-05T20:05:13.605Z,41.13
2018-11-05T20:07:42.083Z,42.33
2018-11-05T20:10:11.289Z,47.00
2018-11-05T20:12:39.848Z,48.30
2018-11-05T20:15:09.027Z,39.63
2018-11-05T20:17:38.656Z,44.83
2018-11-05T20:20:08.377Z,45.93
2018-11-05T20:22:36.904Z,40.93
2018-11-05T20:25:06.242Z,44.70
2018-11-05T20:27:34.885Z,43.63
2018-11-05T20:30:03.732Z,44.70
2018-11-05T20:32:32.676Z,39.73
2018-11-05T20:35:00.784Z,48.17
2018-11-05T20:37:29.468Z,44.70
2018-11-05T20:39:58.097Z,52.13
2018-11-05T20:42:26.487Z,43.33
2018-11-05T20:44:55.042Z,49.73
2018-11-05T20:47:23.466Z,47.33
2018-11-05T20:49:52.474Z,45.33
2018-11-05T20:52:20.945Z,44.33
2018-11-05T20:54:49.382Z,43.37
2018-11-05T20:57:18.014Z,42.27
2018-11-05T20:59:46.478Z,42.30
2018-11-05T21:02:15.091Z,45.10
2018-11-05T21:04:43.514Z,48.70
2018-11-05T21:07:11.928Z,45.60
2018-11-05T21:09:40.404Z,44.13
2018-11-05T21:12:08.872Z,41.90
2018-11-05T21:14:37.452Z,46.50
2018-11-05T21:17:05.967Z,41.73
2018-11-05T21:19:34.484Z,43.90
2018-11-05T21:22:03.150Z,45.73
2018-11-05T21:24:31.428Z,51.33
2018-11-05T21:26:59.915Z,51.60
2018-11-05T21:29:28.280Z,47.23
2018-11-05T21:31:56.691Z,47.63
2018-11-05T21:34:25.119Z,47.07
2018-11-05T21:36:53.530Z,47.83
2018-11-05T21:39:21.910Z,47.73
2018-11-05T21:41:50.409Z,46.50
2018-11-05T21:44:18.878Z,43.00
2018-11-05T21:46:47.485Z,46.87
2018-11-05T21:49:15.913Z,47.00
2018-11-05T21:51:44.346Z,50.47
2018-11-05T21:54:12.781Z,48.50
2018-11-05T21:56:41.206Z,43.90
2018-11-05T21:59:09.713Z,45.60
2018-11-05T22:01:38.247Z,46.87
2018-11-05T22:04:06.761Z,46.10
2018-11-05T22:06:35.188Z,41.63
2018-11-05T22:09:04.176Z,50.27
2018-11-05T22:11:32.631Z,44.13
2018-11-05T22:14:01.070Z,49.70
2018-11-05T22:16:29.513Z,41.00
2018-11-05T22:18:57.891Z,46.23
2018-11-05T22:21:26.386Z,48.47
2018-11-05T22:23:54.810Z,44.83
2018-11-05T22:26:23.209Z,48.17
2018-11-05T22:28:51.588Z,48.00
2018-11-05T22:31:21.059Z,46.07
2018-11-05T22:33:49.544Z,47.40
2018-11-05T22:36:17.916Z,51.67
2018-11-05T22:38:46.633Z,51.33
2018-11-05T22:41:15.253Z,52.23
2018-11-05T22:43:43.632Z,51.67
2018-11-05T22:46:12.035Z,51.20
2018-11-05T22:48:40.823Z,49.83
2018-11-05T22:51:09.203Z,50.57
2018-11-05T22:53:37.577Z,48.73
2018-11-05T22:56:06.485Z,46.27
2018-11-05T22:58:34.850Z,46.07
2018-11-05T23:01:06.579Z,51.40
2018-11-05T23:03:35.009Z,50.20
2018-11-05T23:06:03.495Z,47.17
2018-11-05T23:08:36.256Z,47.67
2018-11-05T23:11:04.634Z,45.77
2018-11-05T23:13:32.993Z,49.17
2018-11-05T23:16:01.378Z,50.20
2018-11-05T23:18:30.253Z,45.80
2018-11-05T23:20:58.607Z,55.07
2018-11-05T23:23:27.019Z,46.97
2018-11-05T23:25:55.447Z,52.27
2018-11-05T23:28:24.165Z,50.40
2018-11-05T23:30:52.562Z,48.57
2018-11-05T23:33:20.945Z,55.10
2018-11-05T23:35:49.320Z,53.30
2018-11-05T23:38:17.703Z,54.17
2018-11-05T23:40:46.509Z,50.00
2018-11-05T23:43:14.778Z,49.47
2018-11-05T23:45:43.157Z,51.27
2018-11-05T23:48:11.869Z,46.97
2018-11-05T23:50:40.260Z,45.40
2018-11-05T23:53:08.674Z,49.43
2018-11-05T23:55:37.054Z,51.63
2018-11-05T23:58:06.008Z,51.93
